UAE538 OMDB-VAAH
Flight info
| Callsign | UAE538 |
|---|---|
| Flight time | 2h 11m |
| Altitude | 35000 |
| Route | IVURO M677 LALDO B505 NADSO B524 ALPOR M504 TELEM N893 VASLA VASLA1A |
| Aircraft | B77W/H-SDE1E2E3FGHIJ2J3J4J5M1RWXY/LB1D1 |
Departure
| Time | 2026-05-07 02:58 |
|---|---|
| Airport | Dubai International Airport (OMDB) |
Arrival
| Time | 2026-05-07 05:10 |
|---|---|
| Airport | Sardar Vallabh Patel International Airport (VAAH) |
| Time | Latitude | Longitude | Altitude | Speed | Heading |
|---|---|---|---|---|---|
| 2026-05-07 02:52 | 25.24231 | 55.37637 | 27 ft | 3 kts | 245° |
| 2026-05-07 02:53 | 25.24240 | 55.37657 | 26 ft | 3 kts | 239° |
| 2026-05-07 02:53 | 25.24251 | 55.37675 | 26 ft | 3 kts | 230° |
| 2026-05-07 02:53 | 25.24265 | 55.37691 | 25 ft | 3 kts | 209° |
| 2026-05-07 02:53 | 25.24280 | 55.37697 | 25 ft | 3 kts | 156° |
| 2026-05-07 02:54 | 25.24286 | 55.37694 | 25 ft | 0 kts | 126° |
| 2026-05-07 02:55 | 25.24284 | 55.37697 | 25 ft | 2 kts | 126° |
| 2026-05-07 02:55 | 25.24274 | 55.37713 | 23 ft | 3 kts | 122° |
| 2026-05-07 02:56 | 25.24267 | 55.37751 | 27 ft | 7 kts | 81° |
| 2026-05-07 02:56 | 25.24299 | 55.37791 | 27 ft | 7 kts | 36° |
| 2026-05-07 02:56 | 25.24359 | 55.37838 | 27 ft | 14 kts | 35° |
| 2026-05-07 02:56 | 25.24438 | 55.37898 | 27 ft | 14 kts | 34° |
| 2026-05-07 02:57 | 25.24517 | 55.37958 | 27 ft | 14 kts | 34° |
| 2026-05-07 02:57 | 25.24597 | 55.38017 | 27 ft | 14 kts | 34° |
| 2026-05-07 02:57 | 25.24679 | 55.38075 | 27 ft | 14 kts | 31° |
| 2026-05-07 02:57 | 25.24766 | 55.38086 | 27 ft | 14 kts | 320° |
| 2026-05-07 02:58 | 25.24825 | 55.37984 | 27 ft | 26 kts | 302° |
| 2026-05-07 02:58 | 25.25070 | 55.37544 | 27 ft | 111 kts | 302° |
| 2026-05-07 02:58 | 25.25613 | 55.36574 | 33 ft | 181 kts | 301° |
| 2026-05-07 02:58 | 25.26289 | 55.35358 | 712 ft | 186 kts | 300° |
| 2026-05-07 02:59 | 25.26977 | 55.34116 | 1503 ft | 190 kts | 298° |
| 2026-05-07 02:59 | 25.27685 | 55.32836 | 2111 ft | 205 kts | 299° |
| 2026-05-07 02:59 | 25.28470 | 55.31419 | 2441 ft | 230 kts | 300° |
| 2026-05-07 02:59 | 25.29471 | 55.30022 | 3091 ft | 236 kts | 323° |
| 2026-05-07 03:00 | 25.31025 | 55.29461 | 3912 ft | 239 kts | 356° |
| 2026-05-07 03:00 | 25.32684 | 55.29499 | 4657 ft | 243 kts | 359° |
| 2026-05-07 03:00 | 25.34395 | 55.29550 | 5452 ft | 247 kts | 359° |
| 2026-05-07 03:00 | 25.36121 | 55.29607 | 6315 ft | 248 kts | 359° |
| 2026-05-07 03:01 | 25.37854 | 55.29655 | 7121 ft | 249 kts | 360° |
| 2026-05-07 03:01 | 25.39564 | 55.29982 | 7805 ft | 254 kts | 25° |
| 2026-05-07 03:01 | 25.40989 | 55.31217 | 8217 ft | 273 kts | 49° |
| 2026-05-07 03:01 | 25.42196 | 55.32892 | 8774 ft | 285 kts | 51° |
| 2026-05-07 03:02 | 25.43437 | 55.34620 | 9667 ft | 287 kts | 51° |
| 2026-05-07 03:02 | 25.44700 | 55.36373 | 10410 ft | 295 kts | 52° |
| 2026-05-07 03:02 | 25.46046 | 55.38230 | 10685 ft | 323 kts | 52° |
| 2026-05-07 03:02 | 25.47502 | 55.40226 | 10895 ft | 351 kts | 51° |
| 2026-05-07 03:03 | 25.49076 | 55.42401 | 11353 ft | 369 kts | 52° |
| 2026-05-07 03:03 | 25.50663 | 55.44675 | 12225 ft | 372 kts | 54° |
| 2026-05-07 03:03 | 25.51870 | 55.47212 | 12995 ft | 378 kts | 73° |
| 2026-05-07 03:03 | 25.52181 | 55.50103 | 14014 ft | 380 kts | 91° |
| 2026-05-07 03:04 | 25.51767 | 55.52983 | 14845 ft | 388 kts | 105° |
| 2026-05-07 03:04 | 25.51051 | 55.54850 | 15254 ft | 393 kts | 118° |
| 2026-05-07 03:04 | 25.49047 | 55.58300 | 16087 ft | 407 kts | 123° |
| 2026-05-07 03:04 | 25.47464 | 55.60934 | 16911 ft | 413 kts | 123° |
| 2026-05-07 03:05 | 25.45887 | 55.63624 | 17747 ft | 418 kts | 123° |
| 2026-05-07 03:05 | 25.44340 | 55.66321 | 18489 ft | 424 kts | 123° |
| 2026-05-07 03:05 | 25.42792 | 55.69135 | 19102 ft | 431 kts | 118° |
| 2026-05-07 03:05 | 25.41806 | 55.72291 | 19640 ft | 439 kts | 102° |
| 2026-05-07 03:06 | 25.41227 | 55.75634 | 20318 ft | 444 kts | 102° |
| 2026-05-07 03:06 | 25.40599 | 55.78964 | 20983 ft | 449 kts | 103° |
| 2026-05-07 03:06 | 25.39887 | 55.82376 | 21629 ft | 456 kts | 104° |
| 2026-05-07 03:06 | 25.39139 | 55.85819 | 22253 ft | 462 kts | 104° |
| 2026-05-07 03:07 | 25.38391 | 55.89264 | 22876 ft | 468 kts | 104° |
| 2026-05-07 03:07 | 25.37881 | 55.91633 | 23309 ft | 471 kts | 104° |
| 2026-05-07 03:07 | 25.37121 | 55.95181 | 23819 ft | 477 kts | 104° |
| 2026-05-07 03:07 | 25.36363 | 55.98734 | 24293 ft | 482 kts | 104° |
| 2026-05-07 03:08 | 25.35587 | 56.02369 | 24763 ft | 487 kts | 104° |
| 2026-05-07 03:08 | 25.34803 | 56.06043 | 25237 ft | 492 kts | 104° |
| 2026-05-07 03:08 | 25.34012 | 56.09746 | 25702 ft | 497 kts | 104° |
| 2026-05-07 03:08 | 25.33209 | 56.13490 | 26138 ft | 502 kts | 104° |
| 2026-05-07 03:09 | 25.32475 | 56.17294 | 26574 ft | 508 kts | 100° |
| 2026-05-07 03:09 | 25.32072 | 56.21151 | 26997 ft | 513 kts | 95° |
| 2026-05-07 03:09 | 25.31836 | 56.25111 | 27441 ft | 518 kts | 94° |
| 2026-05-07 03:09 | 25.31619 | 56.29111 | 27869 ft | 522 kts | 95° |
| 2026-05-07 03:10 | 25.31342 | 56.33134 | 28269 ft | 527 kts | 96° |
| 2026-05-07 03:10 | 25.31006 | 56.37195 | 28647 ft | 531 kts | 96° |
| 2026-05-07 03:10 | 25.30704 | 56.41235 | 28990 ft | 535 kts | 94° |
| 2026-05-07 03:10 | 25.30562 | 56.45374 | 29318 ft | 539 kts | 92° |
| 2026-05-07 03:11 | 25.30484 | 56.49553 | 29643 ft | 543 kts | 92° |
| 2026-05-07 03:11 | 25.30369 | 56.53748 | 29940 ft | 546 kts | 95° |
| 2026-05-07 03:11 | 25.29932 | 56.57874 | 30234 ft | 546 kts | 101° |
| 2026-05-07 03:11 | 25.29120 | 56.61973 | 30676 ft | 543 kts | 107° |
| 2026-05-07 03:12 | 25.28028 | 56.65959 | 31190 ft | 538 kts | 112° |
| 2026-05-07 03:12 | 25.26648 | 56.69736 | 31693 ft | 534 kts | 115° |
| 2026-05-07 03:12 | 25.25184 | 56.73517 | 32138 ft | 533 kts | 115° |
| 2026-05-07 03:12 | 25.23708 | 56.77294 | 32585 ft | 532 kts | 115° |
| 2026-05-07 03:13 | 25.22260 | 56.81016 | 33049 ft | 531 kts | 115° |
| 2026-05-07 03:13 | 25.20810 | 56.84773 | 33535 ft | 530 kts | 115° |
| 2026-05-07 03:13 | 25.19374 | 56.88522 | 33967 ft | 528 kts | 115° |
| 2026-05-07 03:13 | 25.17963 | 56.92227 | 34349 ft | 527 kts | 115° |
| 2026-05-07 03:14 | 25.16532 | 56.95990 | 34726 ft | 527 kts | 115° |
| 2026-05-07 03:14 | 25.15115 | 56.99719 | 35089 ft | 526 kts | 115° |
| 2026-05-07 03:14 | 25.12338 | 57.07012 | 35917 ft | 522 kts | 115° |
| 2026-05-07 03:15 | 25.10927 | 57.10707 | 36268 ft | 521 kts | 115° |
| 2026-05-07 03:15 | 25.09514 | 57.14404 | 36598 ft | 521 kts | 115° |
| 2026-05-07 03:15 | 25.08117 | 57.18052 | 36770 ft | 525 kts | 115° |
| 2026-05-07 03:15 | 25.06688 | 57.21781 | 36907 ft | 527 kts | 115° |
| 2026-05-07 03:16 | 25.05263 | 57.25499 | 37320 ft | 523 kts | 115° |
| 2026-05-07 03:16 | 25.03848 | 57.29191 | 37818 ft | 519 kts | 115° |
| 2026-05-07 03:16 | 25.02444 | 57.32850 | 38248 ft | 516 kts | 115° |
| 2026-05-07 03:16 | 25.01047 | 57.36485 | 38606 ft | 514 kts | 115° |
| 2026-05-07 03:17 | 24.99648 | 57.40121 | 38736 ft | 516 kts | 115° |
| 2026-05-07 03:17 | 24.96853 | 57.47374 | 38803 ft | 516 kts | 115° |
| 2026-05-07 03:18 | 24.94056 | 57.54628 | 38799 ft | 510 kts | 115° |
| 2026-05-07 03:18 | 24.91290 | 57.61786 | 38805 ft | 508 kts | 115° |
| 2026-05-07 03:19 | 24.88509 | 57.68972 | 38809 ft | 508 kts | 115° |
| 2026-05-07 03:19 | 24.85750 | 57.76089 | 38811 ft | 509 kts | 115° |
| 2026-05-07 03:20 | 24.83127 | 57.83347 | 38798 ft | 511 kts | 109° |
| 2026-05-07 03:20 | 24.81440 | 57.90981 | 38814 ft | 513 kts | 104° |
| 2026-05-07 03:21 | 24.79953 | 57.98624 | 38811 ft | 514 kts | 103° |
| 2026-05-07 03:21 | 24.78441 | 58.06235 | 38808 ft | 514 kts | 104° |
| 2026-05-07 03:22 | 24.76881 | 58.13889 | 38803 ft | 514 kts | 104° |
| 2026-05-07 03:22 | 24.75297 | 58.21583 | 38811 ft | 514 kts | 104° |
| 2026-05-07 03:23 | 24.73717 | 58.29241 | 38807 ft | 514 kts | 104° |
| 2026-05-07 03:23 | 24.72132 | 58.36917 | 38812 ft | 514 kts | 104° |
| 2026-05-07 03:24 | 24.70551 | 58.44553 | 38811 ft | 514 kts | 104° |
| 2026-05-07 03:24 | 24.68955 | 58.52243 | 38809 ft | 514 kts | 104° |
| 2026-05-07 03:25 | 24.67367 | 58.59873 | 38812 ft | 514 kts | 104° |
| 2026-05-07 03:25 | 24.65763 | 58.67555 | 38811 ft | 514 kts | 104° |
| 2026-05-07 03:26 | 24.64157 | 58.75229 | 38809 ft | 515 kts | 104° |
| 2026-05-07 03:26 | 24.62556 | 58.82859 | 38812 ft | 515 kts | 104° |
| 2026-05-07 03:27 | 24.60949 | 58.90500 | 38813 ft | 515 kts | 104° |
| 2026-05-07 03:27 | 24.59328 | 58.98183 | 38810 ft | 515 kts | 104° |
| 2026-05-07 03:28 | 24.57735 | 59.05716 | 38806 ft | 515 kts | 104° |
| 2026-05-07 03:28 | 24.56111 | 59.13379 | 38811 ft | 514 kts | 104° |
| 2026-05-07 03:29 | 24.54483 | 59.21040 | 38813 ft | 514 kts | 104° |
| 2026-05-07 03:29 | 24.52863 | 59.28656 | 38811 ft | 514 kts | 104° |
| 2026-05-07 03:30 | 24.51232 | 59.36329 | 38815 ft | 514 kts | 104° |
| 2026-05-07 03:30 | 24.49610 | 59.43944 | 38812 ft | 514 kts | 104° |
| 2026-05-07 03:31 | 24.47974 | 59.51601 | 38811 ft | 514 kts | 104° |
| 2026-05-07 03:31 | 24.46344 | 59.59210 | 38810 ft | 514 kts | 104° |
| 2026-05-07 03:32 | 24.44701 | 59.66857 | 38814 ft | 515 kts | 104° |
| 2026-05-07 03:32 | 24.43051 | 59.74520 | 38813 ft | 515 kts | 104° |
| 2026-05-07 03:33 | 24.41404 | 59.82149 | 38808 ft | 516 kts | 104° |
| 2026-05-07 03:33 | 24.39742 | 59.89827 | 38816 ft | 516 kts | 104° |
| 2026-05-07 03:34 | 24.38087 | 59.97451 | 38810 ft | 516 kts | 104° |
| 2026-05-07 03:34 | 24.36437 | 60.05041 | 38812 ft | 516 kts | 104° |
| 2026-05-07 03:35 | 24.34762 | 60.12714 | 38805 ft | 517 kts | 104° |
| 2026-05-07 03:35 | 24.33083 | 60.20354 | 38811 ft | 517 kts | 104° |
| 2026-05-07 03:36 | 24.31390 | 60.28030 | 38805 ft | 517 kts | 104° |
| 2026-05-07 03:36 | 24.29705 | 60.35661 | 38808 ft | 517 kts | 104° |
| 2026-05-07 03:37 | 24.28009 | 60.43326 | 38813 ft | 516 kts | 104° |
| 2026-05-07 03:37 | 24.26317 | 60.50951 | 38809 ft | 516 kts | 104° |
| 2026-05-07 03:38 | 24.24613 | 60.58614 | 38809 ft | 516 kts | 104° |
| 2026-05-07 03:38 | 24.22916 | 60.66222 | 38811 ft | 516 kts | 105° |
| 2026-05-07 03:39 | 24.21206 | 60.73876 | 38808 ft | 516 kts | 105° |
| 2026-05-07 03:39 | 24.19494 | 60.81521 | 38807 ft | 516 kts | 105° |
| 2026-05-07 03:40 | 24.17782 | 60.89152 | 38809 ft | 516 kts | 105° |
| 2026-05-07 03:40 | 24.16074 | 60.96747 | 38807 ft | 516 kts | 105° |
| 2026-05-07 03:41 | 24.14380 | 61.04268 | 38813 ft | 515 kts | 105° |
| 2026-05-07 03:41 | 24.12653 | 61.11913 | 38810 ft | 515 kts | 105° |
| 2026-05-07 03:42 | 24.10936 | 61.19493 | 38813 ft | 515 kts | 105° |
| 2026-05-07 03:42 | 24.09206 | 61.27118 | 38808 ft | 515 kts | 105° |
| 2026-05-07 03:43 | 24.07694 | 61.34747 | 38815 ft | 516 kts | 98° |
| 2026-05-07 03:43 | 24.07140 | 61.42577 | 38820 ft | 516 kts | 93° |
| 2026-05-07 03:44 | 24.06743 | 61.50426 | 38809 ft | 517 kts | 93° |
| 2026-05-07 03:44 | 24.06316 | 61.58250 | 38814 ft | 517 kts | 94° |
| 2026-05-07 03:45 | 24.05848 | 61.66126 | 38813 ft | 518 kts | 94° |
| 2026-05-07 03:45 | 24.05365 | 61.73994 | 38808 ft | 518 kts | 94° |
| 2026-05-07 03:46 | 24.04879 | 61.81839 | 38813 ft | 518 kts | 94° |
| 2026-05-07 03:46 | 24.04391 | 61.89702 | 38814 ft | 517 kts | 94° |
| 2026-05-07 03:47 | 24.03903 | 61.97518 | 38810 ft | 517 kts | 94° |
| 2026-05-07 03:47 | 24.03414 | 62.05281 | 38814 ft | 517 kts | 94° |
| 2026-05-07 03:48 | 24.02915 | 62.13150 | 38814 ft | 517 kts | 94° |
| 2026-05-07 03:48 | 24.02412 | 62.21003 | 38815 ft | 517 kts | 94° |
| 2026-05-07 03:49 | 24.01908 | 62.28816 | 38812 ft | 517 kts | 94° |
| 2026-05-07 03:49 | 24.01395 | 62.36691 | 38814 ft | 518 kts | 94° |
| 2026-05-07 03:50 | 24.00883 | 62.44506 | 38815 ft | 518 kts | 94° |
| 2026-05-07 03:50 | 24.00363 | 62.52383 | 38813 ft | 519 kts | 94° |
| 2026-05-07 03:51 | 23.99839 | 62.60240 | 38816 ft | 519 kts | 94° |
| 2026-05-07 03:51 | 23.99310 | 62.68130 | 38817 ft | 520 kts | 94° |
| 2026-05-07 03:52 | 23.98779 | 62.75981 | 38811 ft | 520 kts | 94° |
| 2026-05-07 03:52 | 23.98241 | 62.83877 | 38810 ft | 520 kts | 94° |
| 2026-05-07 03:53 | 23.97699 | 62.91775 | 38817 ft | 520 kts | 95° |
| 2026-05-07 03:53 | 23.97156 | 62.99620 | 38816 ft | 519 kts | 95° |
| 2026-05-07 03:54 | 23.96612 | 63.07423 | 38820 ft | 519 kts | 95° |
| 2026-05-07 03:54 | 23.96063 | 63.15247 | 38825 ft | 518 kts | 95° |
| 2026-05-07 03:55 | 23.95506 | 63.23122 | 38822 ft | 519 kts | 95° |
| 2026-05-07 03:55 | 23.95041 | 63.29665 | 38824 ft | 519 kts | 95° |
| 2026-05-07 03:56 | 23.94383 | 63.38837 | 38821 ft | 519 kts | 95° |
| 2026-05-07 03:56 | 23.93909 | 63.45395 | 38820 ft | 520 kts | 95° |
| 2026-05-07 03:57 | 23.93335 | 63.53293 | 38825 ft | 520 kts | 95° |
| 2026-05-07 03:57 | 23.92761 | 63.61148 | 38825 ft | 520 kts | 95° |
| 2026-05-07 03:58 | 23.92177 | 63.69067 | 38821 ft | 521 kts | 95° |
| 2026-05-07 03:58 | 23.91594 | 63.76919 | 38825 ft | 521 kts | 95° |
| 2026-05-07 03:59 | 23.91003 | 63.84818 | 38825 ft | 521 kts | 95° |
| 2026-05-07 03:59 | 23.90407 | 63.92742 | 38824 ft | 521 kts | 95° |
| 2026-05-07 04:00 | 23.89818 | 64.00516 | 38830 ft | 520 kts | 95° |
| 2026-05-07 04:00 | 23.89218 | 64.08373 | 38830 ft | 520 kts | 95° |
| 2026-05-07 04:01 | 23.88613 | 64.16260 | 38827 ft | 520 kts | 95° |
| 2026-05-07 04:01 | 23.88003 | 64.24137 | 38825 ft | 520 kts | 95° |
| 2026-05-07 04:02 | 23.87390 | 64.32022 | 38823 ft | 520 kts | 95° |
| 2026-05-07 04:02 | 23.86775 | 64.39866 | 38826 ft | 520 kts | 95° |
| 2026-05-07 04:03 | 23.86153 | 64.47751 | 38827 ft | 520 kts | 95° |
| 2026-05-07 04:03 | 23.85527 | 64.55639 | 38828 ft | 521 kts | 95° |
| 2026-05-07 04:04 | 23.84899 | 64.63503 | 38828 ft | 521 kts | 95° |
| 2026-05-07 04:04 | 23.84267 | 64.71361 | 38828 ft | 521 kts | 95° |
| 2026-05-07 04:05 | 23.83629 | 64.79258 | 38828 ft | 521 kts | 95° |
| 2026-05-07 04:05 | 23.83236 | 64.87175 | 38830 ft | 520 kts | 89° |
| 2026-05-07 04:06 | 23.83303 | 64.95047 | 38835 ft | 521 kts | 88° |
| 2026-05-07 04:06 | 23.83404 | 65.02886 | 38827 ft | 521 kts | 88° |
| 2026-05-07 04:07 | 23.83472 | 65.10827 | 38831 ft | 522 kts | 89° |
| 2026-05-07 04:07 | 23.83749 | 65.18709 | 38828 ft | 521 kts | 84° |
| 2026-05-07 04:08 | 23.84483 | 65.26596 | 38826 ft | 521 kts | 83° |
| 2026-05-07 04:08 | 23.85258 | 65.34453 | 38822 ft | 521 kts | 83° |
| 2026-05-07 04:09 | 23.85982 | 65.42287 | 38827 ft | 521 kts | 83° |
| 2026-05-07 04:09 | 23.86676 | 65.50185 | 38830 ft | 521 kts | 83° |
| 2026-05-07 04:10 | 23.87357 | 65.58069 | 38826 ft | 521 kts | 83° |
| 2026-05-07 04:10 | 23.88034 | 65.65917 | 38827 ft | 521 kts | 83° |
| 2026-05-07 04:11 | 23.88719 | 65.73821 | 38827 ft | 521 kts | 83° |
| 2026-05-07 04:11 | 23.89402 | 65.81683 | 38828 ft | 521 kts | 83° |
| 2026-05-07 04:12 | 23.90078 | 65.89588 | 38832 ft | 522 kts | 83° |
| 2026-05-07 04:12 | 23.90743 | 65.97448 | 38828 ft | 522 kts | 83° |
| 2026-05-07 04:13 | 23.91400 | 66.05289 | 38832 ft | 523 kts | 83° |
| 2026-05-07 04:13 | 23.92057 | 66.13166 | 38831 ft | 523 kts | 83° |
| 2026-05-07 04:14 | 23.92715 | 66.21094 | 38831 ft | 523 kts | 83° |
| 2026-05-07 04:14 | 23.93368 | 66.29026 | 38837 ft | 523 kts | 83° |
| 2026-05-07 04:15 | 23.94016 | 66.36927 | 38829 ft | 524 kts | 83° |
| 2026-05-07 04:15 | 23.94663 | 66.44877 | 38834 ft | 524 kts | 83° |
| 2026-05-07 04:16 | 23.95305 | 66.52819 | 38835 ft | 524 kts | 83° |
| 2026-05-07 04:16 | 23.95941 | 66.60736 | 38837 ft | 524 kts | 83° |
| 2026-05-07 04:17 | 23.96575 | 66.68682 | 38831 ft | 524 kts | 83° |
| 2026-05-07 04:17 | 23.97202 | 66.76584 | 38833 ft | 524 kts | 83° |
| 2026-05-07 04:18 | 23.97827 | 66.84528 | 38830 ft | 523 kts | 83° |
| 2026-05-07 04:18 | 23.98449 | 66.92468 | 38830 ft | 523 kts | 83° |
| 2026-05-07 04:19 | 23.99054 | 67.00252 | 38830 ft | 523 kts | 83° |
| 2026-05-07 04:19 | 23.99668 | 67.08204 | 38830 ft | 523 kts | 83° |
| 2026-05-07 04:20 | 24.00273 | 67.16102 | 38830 ft | 523 kts | 83° |
| 2026-05-07 04:20 | 24.00878 | 67.24038 | 38833 ft | 523 kts | 83° |
| 2026-05-07 04:21 | 24.01778 | 67.35955 | 38827 ft | 523 kts | 83° |
| 2026-05-07 04:21 | 24.02369 | 67.43853 | 38830 ft | 523 kts | 83° |
| 2026-05-07 04:22 | 24.02961 | 67.51808 | 38831 ft | 523 kts | 83° |
| 2026-05-07 04:22 | 24.03547 | 67.59754 | 38831 ft | 523 kts | 83° |
| 2026-05-07 04:23 | 24.04126 | 67.67652 | 38827 ft | 523 kts | 83° |
| 2026-05-07 04:23 | 24.04705 | 67.75601 | 38828 ft | 524 kts | 83° |
| 2026-05-07 04:24 | 24.05280 | 67.83557 | 38825 ft | 524 kts | 83° |
| 2026-05-07 04:24 | 24.05846 | 67.91456 | 38824 ft | 524 kts | 83° |
| 2026-05-07 04:25 | 24.06414 | 67.99424 | 38828 ft | 524 kts | 83° |
| 2026-05-07 04:25 | 24.06969 | 68.07279 | 38827 ft | 524 kts | 83° |
| 2026-05-07 04:26 | 24.07524 | 68.15192 | 38825 ft | 524 kts | 83° |
| 2026-05-07 04:26 | 24.08080 | 68.23173 | 38819 ft | 524 kts | 83° |
| 2026-05-07 04:27 | 24.08628 | 68.31093 | 38822 ft | 524 kts | 83° |
| 2026-05-07 04:27 | 24.09175 | 68.39076 | 38823 ft | 525 kts | 83° |
| 2026-05-07 04:28 | 24.09717 | 68.47026 | 38823 ft | 525 kts | 83° |
| 2026-05-07 04:28 | 24.10256 | 68.55017 | 38826 ft | 526 kts | 83° |
| 2026-05-07 04:29 | 24.10790 | 68.62972 | 38824 ft | 526 kts | 83° |
| 2026-05-07 04:29 | 24.11299 | 68.70994 | 38818 ft | 527 kts | 86° |
| 2026-05-07 04:30 | 24.10847 | 68.79012 | 38826 ft | 529 kts | 97° |
| 2026-05-07 04:30 | 24.09212 | 68.86827 | 38829 ft | 529 kts | 105° |
| 2026-05-07 04:31 | 24.07136 | 68.94567 | 38823 ft | 530 kts | 106° |
| 2026-05-07 04:31 | 24.05091 | 69.02173 | 38821 ft | 530 kts | 105° |
| 2026-05-07 04:32 | 24.03046 | 69.09942 | 38825 ft | 530 kts | 105° |
| 2026-05-07 04:32 | 24.01019 | 69.17712 | 38825 ft | 530 kts | 105° |
| 2026-05-07 04:33 | 23.99004 | 69.25431 | 38824 ft | 530 kts | 105° |
| 2026-05-07 04:33 | 23.96969 | 69.33194 | 38825 ft | 530 kts | 105° |
| 2026-05-07 04:34 | 23.94938 | 69.40915 | 38828 ft | 530 kts | 105° |
| 2026-05-07 04:34 | 23.92900 | 69.48645 | 38826 ft | 530 kts | 105° |
| 2026-05-07 04:35 | 23.90851 | 69.56400 | 38831 ft | 531 kts | 105° |
| 2026-05-07 04:35 | 23.88793 | 69.64174 | 38828 ft | 531 kts | 105° |
| 2026-05-07 04:36 | 23.86747 | 69.71882 | 38834 ft | 531 kts | 105° |
| 2026-05-07 04:36 | 23.84680 | 69.79658 | 38833 ft | 532 kts | 105° |
| 2026-05-07 04:37 | 23.82623 | 69.87374 | 38840 ft | 532 kts | 105° |
| 2026-05-07 04:37 | 23.80546 | 69.95154 | 38833 ft | 533 kts | 105° |
| 2026-05-07 04:38 | 23.78487 | 70.02843 | 38834 ft | 533 kts | 105° |
| 2026-05-07 04:38 | 23.76413 | 70.10576 | 38833 ft | 533 kts | 105° |
| 2026-05-07 04:39 | 23.74320 | 70.18360 | 38833 ft | 533 kts | 105° |
| 2026-05-07 04:39 | 23.72236 | 70.26095 | 38838 ft | 534 kts | 105° |
| 2026-05-07 04:40 | 23.70135 | 70.33876 | 38833 ft | 533 kts | 106° |
| 2026-05-07 04:40 | 23.68039 | 70.41622 | 38839 ft | 533 kts | 106° |
| 2026-05-07 04:41 | 23.65930 | 70.49400 | 38841 ft | 533 kts | 106° |
| 2026-05-07 04:41 | 23.63833 | 70.57116 | 38846 ft | 533 kts | 106° |
| 2026-05-07 04:42 | 23.62071 | 70.63588 | 38842 ft | 533 kts | 106° |
| 2026-05-07 04:42 | 23.60651 | 70.68796 | 37998 ft | 545 kts | 106° |
| 2026-05-07 04:42 | 23.59932 | 70.71431 | 37507 ft | 545 kts | 106° |
| 2026-05-07 04:43 | 23.58848 | 70.75395 | 36747 ft | 543 kts | 106° |
| 2026-05-07 04:43 | 23.57763 | 70.79360 | 35981 ft | 543 kts | 105° |
| 2026-05-07 04:43 | 23.56680 | 70.83315 | 35145 ft | 544 kts | 105° |
| 2026-05-07 04:43 | 23.55604 | 70.87241 | 34209 ft | 549 kts | 105° |
| 2026-05-07 04:44 | 23.54504 | 70.91253 | 33145 ft | 553 kts | 105° |
| 2026-05-07 04:44 | 23.53394 | 70.95291 | 32062 ft | 557 kts | 104° |
| 2026-05-07 04:44 | 23.52286 | 70.99306 | 30997 ft | 561 kts | 103° |
| 2026-05-07 04:44 | 23.51034 | 71.03255 | 30129 ft | 562 kts | 106° |
| 2026-05-07 04:45 | 23.49648 | 71.07226 | 29328 ft | 557 kts | 107° |
| 2026-05-07 04:45 | 23.48248 | 71.11149 | 28556 ft | 552 kts | 108° |
| 2026-05-07 04:45 | 23.46857 | 71.15026 | 27843 ft | 545 kts | 108° |
| 2026-05-07 04:45 | 23.45504 | 71.18807 | 27153 ft | 538 kts | 108° |
| 2026-05-07 04:46 | 23.44155 | 71.22600 | 26469 ft | 532 kts | 108° |
| 2026-05-07 04:46 | 23.42834 | 71.26333 | 25790 ft | 526 kts | 108° |
| 2026-05-07 04:46 | 23.41525 | 71.30044 | 25093 ft | 520 kts | 108° |
| 2026-05-07 04:46 | 23.40251 | 71.33663 | 24407 ft | 515 kts | 109° |
| 2026-05-07 04:47 | 23.38989 | 71.37242 | 23711 ft | 496 kts | 109° |
| 2026-05-07 04:47 | 23.37770 | 71.40691 | 22968 ft | 477 kts | 109° |
| 2026-05-07 04:47 | 23.36600 | 71.43995 | 22271 ft | 459 kts | 109° |
| 2026-05-07 04:47 | 23.35464 | 71.47204 | 21640 ft | 451 kts | 109° |
| 2026-05-07 04:48 | 23.34339 | 71.50385 | 21019 ft | 448 kts | 109° |
| 2026-05-07 04:48 | 23.33222 | 71.53543 | 20404 ft | 445 kts | 109° |
| 2026-05-07 04:48 | 23.32122 | 71.56647 | 19798 ft | 442 kts | 109° |
| 2026-05-07 04:48 | 23.31018 | 71.59760 | 19168 ft | 439 kts | 110° |
| 2026-05-07 04:49 | 23.29923 | 71.62843 | 18535 ft | 431 kts | 110° |
| 2026-05-07 04:49 | 23.28857 | 71.65839 | 17899 ft | 415 kts | 110° |
| 2026-05-07 04:49 | 23.27835 | 71.68708 | 17259 ft | 399 kts | 110° |
| 2026-05-07 04:49 | 23.26833 | 71.71523 | 16704 ft | 397 kts | 110° |
| 2026-05-07 04:50 | 23.25851 | 71.74284 | 16144 ft | 396 kts | 110° |
| 2026-05-07 04:50 | 23.24856 | 71.77078 | 15579 ft | 395 kts | 110° |
| 2026-05-07 04:50 | 23.23864 | 71.79859 | 15021 ft | 394 kts | 110° |
| 2026-05-07 04:50 | 23.22872 | 71.82639 | 14450 ft | 393 kts | 110° |
| 2026-05-07 04:51 | 23.21879 | 71.85420 | 13869 ft | 394 kts | 110° |
| 2026-05-07 04:51 | 23.20898 | 71.88169 | 13252 ft | 394 kts | 110° |
| 2026-05-07 04:51 | 23.19907 | 71.90941 | 12649 ft | 392 kts | 110° |
| 2026-05-07 04:51 | 23.18921 | 71.93696 | 12058 ft | 390 kts | 111° |
| 2026-05-07 04:52 | 23.17954 | 71.96393 | 11460 ft | 374 kts | 110° |
| 2026-05-07 04:52 | 23.17017 | 71.99007 | 10917 ft | 368 kts | 110° |
| 2026-05-07 04:52 | 23.16130 | 72.01482 | 10725 ft | 358 kts | 110° |
| 2026-05-07 04:52 | 23.15238 | 72.03968 | 10560 ft | 347 kts | 110° |
| 2026-05-07 04:53 | 23.14369 | 72.06390 | 10397 ft | 338 kts | 110° |
| 2026-05-07 04:53 | 23.13527 | 72.08734 | 10255 ft | 327 kts | 110° |
| 2026-05-07 04:53 | 23.12735 | 72.10939 | 10108 ft | 307 kts | 110° |
| 2026-05-07 04:53 | 23.11974 | 72.13057 | 9988 ft | 296 kts | 110° |
| 2026-05-07 04:54 | 23.11233 | 72.15117 | 9871 ft | 288 kts | 110° |
| 2026-05-07 04:54 | 23.10508 | 72.17134 | 9590 ft | 286 kts | 110° |
| 2026-05-07 04:54 | 23.09783 | 72.19151 | 9263 ft | 286 kts | 110° |
| 2026-05-07 04:54 | 23.09066 | 72.21144 | 8942 ft | 286 kts | 111° |
| 2026-05-07 04:55 | 23.08338 | 72.23170 | 8606 ft | 287 kts | 111° |
| 2026-05-07 04:55 | 23.07610 | 72.25190 | 8273 ft | 287 kts | 111° |
| 2026-05-07 04:55 | 23.06879 | 72.27216 | 7946 ft | 288 kts | 111° |
| 2026-05-07 04:55 | 23.06147 | 72.29248 | 7613 ft | 287 kts | 110° |
| 2026-05-07 04:56 | 23.05802 | 72.31340 | 7307 ft | 282 kts | 86° |
| 2026-05-07 04:56 | 23.06237 | 72.33365 | 7095 ft | 276 kts | 70° |
| 2026-05-07 04:56 | 23.06919 | 72.35298 | 6904 ft | 272 kts | 69° |
| 2026-05-07 04:56 | 23.07602 | 72.37215 | 6692 ft | 272 kts | 69° |
| 2026-05-07 04:57 | 23.08285 | 72.39144 | 6496 ft | 275 kts | 69° |
| 2026-05-07 04:57 | 23.08970 | 72.41090 | 6290 ft | 277 kts | 69° |
| 2026-05-07 04:57 | 23.09647 | 72.43030 | 6086 ft | 277 kts | 70° |
| 2026-05-07 04:57 | 23.10322 | 72.44973 | 5864 ft | 270 kts | 70° |
| 2026-05-07 04:58 | 23.10970 | 72.46843 | 5640 ft | 260 kts | 70° |
| 2026-05-07 04:58 | 23.11601 | 72.48671 | 5438 ft | 256 kts | 70° |
| 2026-05-07 04:58 | 23.12394 | 72.50353 | 5260 ft | 246 kts | 50° |
| 2026-05-07 04:58 | 23.13575 | 72.51655 | 5114 ft | 239 kts | 44° |
| 2026-05-07 04:59 | 23.14745 | 72.52901 | 4990 ft | 238 kts | 44° |
| 2026-05-07 04:59 | 23.15928 | 72.54170 | 4861 ft | 241 kts | 44° |
| 2026-05-07 04:59 | 23.17126 | 72.55460 | 4717 ft | 243 kts | 44° |
| 2026-05-07 04:59 | 23.18333 | 72.56763 | 4595 ft | 246 kts | 44° |
| 2026-05-07 05:00 | 23.19546 | 72.58077 | 4419 ft | 244 kts | 44° |
| 2026-05-07 05:00 | 23.20739 | 72.59372 | 4311 ft | 238 kts | 44° |
| 2026-05-07 05:00 | 23.21891 | 72.60624 | 4280 ft | 232 kts | 44° |
| 2026-05-07 05:00 | 23.23039 | 72.61874 | 4152 ft | 240 kts | 44° |
| 2026-05-07 05:01 | 23.24222 | 72.63162 | 4022 ft | 240 kts | 44° |
| 2026-05-07 05:01 | 23.25392 | 72.64437 | 3859 ft | 234 kts | 44° |
| 2026-05-07 05:01 | 23.26516 | 72.65663 | 3759 ft | 223 kts | 44° |
| 2026-05-07 05:01 | 23.27592 | 72.66837 | 3599 ft | 215 kts | 45° |
| 2026-05-07 05:02 | 23.28626 | 72.67965 | 3463 ft | 206 kts | 45° |
| 2026-05-07 05:02 | 23.29606 | 72.69034 | 3336 ft | 198 kts | 44° |
| 2026-05-07 05:02 | 23.30588 | 72.70106 | 3221 ft | 202 kts | 44° |
| 2026-05-07 05:02 | 23.31579 | 72.71187 | 3121 ft | 201 kts | 44° |
| 2026-05-07 05:03 | 23.32556 | 72.72258 | 3076 ft | 197 kts | 48° |
| 2026-05-07 05:03 | 23.33149 | 72.73572 | 3002 ft | 194 kts | 88° |
| 2026-05-07 05:03 | 23.32815 | 72.74971 | 3009 ft | 195 kts | 128° |
| 2026-05-07 05:03 | 23.31760 | 72.75838 | 3006 ft | 193 kts | 165° |
| 2026-05-07 05:04 | 23.30461 | 72.76138 | 3014 ft | 191 kts | 172° |
| 2026-05-07 05:04 | 23.29136 | 72.76404 | 3012 ft | 195 kts | 172° |
| 2026-05-07 05:04 | 23.27831 | 72.76663 | 2984 ft | 191 kts | 172° |
| 2026-05-07 05:04 | 23.26532 | 72.76919 | 2976 ft | 188 kts | 172° |
| 2026-05-07 05:05 | 23.25240 | 72.77176 | 2995 ft | 189 kts | 172° |
| 2026-05-07 05:05 | 23.23947 | 72.77434 | 3010 ft | 189 kts | 172° |
| 2026-05-07 05:05 | 23.22641 | 72.77689 | 2995 ft | 190 kts | 174° |
| 2026-05-07 05:05 | 23.21398 | 72.77531 | 2976 ft | 180 kts | 212° |
| 2026-05-07 05:06 | 23.20403 | 72.76711 | 3008 ft | 183 kts | 219° |
| 2026-05-07 05:06 | 23.19371 | 72.75839 | 2890 ft | 190 kts | 221° |
| 2026-05-07 05:06 | 23.18392 | 72.74883 | 2676 ft | 187 kts | 225° |
| 2026-05-07 05:06 | 23.17471 | 72.73907 | 2422 ft | 186 kts | 226° |
| 2026-05-07 05:07 | 23.16554 | 72.72923 | 2195 ft | 183 kts | 226° |
| 2026-05-07 05:07 | 23.15666 | 72.71970 | 1978 ft | 172 kts | 227° |
| 2026-05-07 05:07 | 23.14854 | 72.71094 | 1771 ft | 161 kts | 227° |
| 2026-05-07 05:07 | 23.14082 | 72.70266 | 1580 ft | 148 kts | 227° |
| 2026-05-07 05:08 | 23.13370 | 72.69498 | 1393 ft | 148 kts | 227° |
| 2026-05-07 05:08 | 23.12638 | 72.68711 | 1204 ft | 146 kts | 226° |
| 2026-05-07 05:08 | 23.11906 | 72.67925 | 1013 ft | 148 kts | 225° |
| 2026-05-07 05:08 | 23.11177 | 72.67144 | 854 ft | 149 kts | 227° |
| 2026-05-07 05:09 | 23.10451 | 72.66365 | 655 ft | 144 kts | 226° |
| 2026-05-07 05:09 | 23.09767 | 72.65624 | 485 ft | 143 kts | 227° |
| 2026-05-07 05:09 | 23.09049 | 72.64861 | 298 ft | 143 kts | 226° |
| 2026-05-07 05:09 | 23.08365 | 72.64135 | 209 ft | 126 kts | 227° |
| 2026-05-07 05:10 | 23.07848 | 72.63582 | 204 ft | 82 kts | 224° |
| 2026-05-07 05:10 | 23.07502 | 72.63213 | 208 ft | 58 kts | 223° |
| 2026-05-07 05:10 | 23.07262 | 72.62957 | 203 ft | 35 kts | 223° |
| 2026-05-07 05:10 | 23.07189 | 72.62816 | 196 ft | 20 kts | 254° |
| 2026-05-07 05:11 | 23.07157 | 72.62688 | 203 ft | 9 kts | 256° |
| 2026-05-07 05:11 | 23.07151 | 72.62621 | 201 ft | 9 kts | 282° |
| 2026-05-07 05:11 | 23.07191 | 72.62567 | 204 ft | 9 kts | 319° |
| 2026-05-07 05:11 | 23.07240 | 72.62516 | 208 ft | 10 kts | 315° |
| 2026-05-07 05:12 | 23.07297 | 72.62500 | 205 ft | 10 kts | 44° |
| 2026-05-07 05:12 | 23.07354 | 72.62509 | 204 ft | 10 kts | 313° |
| 2026-05-07 05:12 | 23.07387 | 72.62469 | 206 ft | 0 kts | 314° |